Aeroporto :
LOGIN :

Iscrizione | Disclaimer

   EN    FR    IT 

 










Sommario :    VFR   VFR Marginale   IFR   IFR Intensivo   IFR Molto Intensivo
Visibilità : 
Base nubi : 
>= 8 km
>= 3000ft
5 / 8 km
1000 / 3000 ft
1500m / 5 km
500 / 1000 ft
800 / 1500m
200 / 500 ft
< 800m
< 200 ft
Simboli :   Temporali  Nebbia  Neve Forte  Precipitazioni Forti  Vento > 20 kt
SIGMETs :   Varie  Temporali  Ghiacco  Turbolenza  Onda orograficha  Ceneri Vulcaniche







- Altitudine del aeroporto : 2096 ft
- Codice IATA : AUR
- Carte del aeroporto


LFLW - Aurillac

ULTIMO METAR :
  • 201500Z AUTO 22007KT 9999 OVC018 04/00 Q1000 BECMG BKN008

METARs OBSOLETI :
  • 201430Z AUTO 20009KT 9999 BKN017 OVC025 04/01 Q1000 BECMG BKN008
  • 201400Z AUTO 20008KT 9999 SCT019 OVC030 04/01 Q1000 BECMG BKN008
  • 201330Z AUTO 20010KT 9999 BKN017 OVC025 04/01 Q1000 BECMG BKN008
  • 201300Z AUTO 21008KT 170V250 9999 BKN015 OVC024 04/01 Q1000 BECMG BKN008
  • 201230Z AUTO 22008KT 190V250 9999 BKN013 BKN020 OVC031 04/01 Q1000 BECMG BKN008

TAF TAF LFLW
Valido dal 20 a 15 ore il 21 a 00 ore UTC


201400Z 2015/2024 16005KT 9999 BKN016
BECMG 2015/2017 VRB03KT BKN008
TEMPO 2017/2024 2500 -RA BR BKN006 OVC010
PROB40
TEMPO 2021/2024 -RASN
Nessun NOTAM noto per questo aeroporto.



MetMap, La meteo Aeronautica in un colpo d'occhio ! - Copyright ORBIFLY Dicembre 2007 - Disclaimer

ORBIFLY MET'MAP TEAM :

Programmazione e sviluppo : Alexandra Zaïnal
Concezione e sviluppo : Baudouin d'Aumeries
Co-Programmazione e sviluppo : Marc-Olivier Méhu
Supporto tecnico e logistico : Manuel Goepfert
Aiuto per la traduzione : Arnaldo La Scala

Contatto : metmap@orbifly.com




FONTI E CREDITI :

   NOAA